sensor_id;sensor_type;location;lat;lon;timestamp;P1;durP1;ratioP1;P2;durP2;ratioP2
71238;SDS011;61342;51.442;7.370;2023-04-24T00:00:30;0.87;;;0.87;;
71238;SDS011;61342;51.442;7.370;2023-04-24T00:01:31;1.63;;;0.80;;
71238;SDS011;61342;51.442;7.370;2023-04-24T00:02:32;1.67;;;0.97;;
71238;SDS011;61342;51.442;7.370;2023-04-24T00:03:32;1.13;;;0.90;;
71238;SDS011;61342;51.442;7.370;2023-04-24T00:04:33;1.00;;;0.90;;
71238;SDS011;61342;51.442;7.370;2023-04-24T00:05:33;1.80;;;0.77;;
71238;SDS011;61342;51.442;7.370;2023-04-24T00:06:34;1.77;;;0.90;;
71238;SDS011;61342;51.442;7.370;2023-04-24T00:07:34;1.00;;;0.70;;
71238;SDS011;61342;51.442;7.370;2023-04-24T00:08:35;0.93;;;0.90;;
71238;SDS011;61342;51.442;7.370;2023-04-24T00:09:36;1.10;;;1.00;;
71238;SDS011;61342;51.442;7.370;2023-04-24T00:10:36;1.73;;;0.80;;
71238;SDS011;61342;51.442;7.370;2023-04-24T00:11:37;1.60;;;1.00;;
71238;SDS011;61342;51.442;7.370;2023-04-24T00:12:37;0.90;;;0.90;;
71238;SDS011;61342;51.442;7.370;2023-04-24T00:13:38;0.70;;;0.67;;
71238;SDS011;61342;51.442;7.370;2023-04-24T00:14:39;2.47;;;0.87;;
71238;SDS011;61342;51.442;7.370;2023-04-24T00:15:39;1.27;;;0.93;;
71238;SDS011;61342;51.442;7.370;2023-04-24T00:16:39;0.90;;;0.90;;
71238;SDS011;61342;51.442;7.370;2023-04-24T00:17:40;1.13;;;0.97;;
71238;SDS011;61342;51.442;7.370;2023-04-24T00:18:40;1.03;;;1.00;;
71238;SDS011;61342;51.442;7.370;2023-04-24T00:19:41;1.60;;;1.10;;
71238;SDS011;61342;51.442;7.370;2023-04-24T00:20:41;2.30;;;1.03;;
71238;SDS011;61342;51.442;7.370;2023-04-24T00:21:43;1.57;;;1.00;;
71238;SDS011;61342;51.442;7.370;2023-04-24T00:22:43;1.20;;;0.87;;
71238;SDS011;61342;51.442;7.370;2023-04-24T00:23:44;1.10;;;0.97;;
71238;SDS011;61342;51.442;7.370;2023-04-24T00:24:44;1.40;;;1.30;;
71238;SDS011;61342;51.442;7.370;2023-04-24T00:25:44;1.93;;;0.80;;
71238;SDS011;61342;51.442;7.370;2023-04-24T00:26:45;1.60;;;1.20;;
71238;SDS011;61342;51.442;7.370;2023-04-24T00:27:45;1.60;;;0.97;;
71238;SDS011;61342;51.442;7.370;2023-04-24T00:28:46;3.17;;;0.90;;
71238;SDS011;61342;51.442;7.370;2023-04-24T00:29:46;1.03;;;1.00;;
71238;SDS011;61342;51.442;7.370;2023-04-24T00:30:47;2.47;;;1.17;;
71238;SDS011;61342;51.442;7.370;2023-04-24T00:31:47;2.03;;;0.97;;
71238;SDS011;61342;51.442;7.370;2023-04-24T00:32:48;2.13;;;1.47;;
71238;SDS011;61342;51.442;7.370;2023-04-24T00:33:48;2.33;;;1.30;;
71238;SDS011;61342;51.442;7.370;2023-04-24T00:34:48;1.23;;;1.10;;
71238;SDS011;61342;51.442;7.370;2023-04-24T00:35:48;1.60;;;1.10;;
71238;SDS011;61342;51.442;7.370;2023-04-24T00:36:49;1.13;;;1.00;;
71238;SDS011;61342;51.442;7.370;2023-04-24T00:37:52;2.10;;;1.07;;
71238;SDS011;61342;51.442;7.370;2023-04-24T00:38:52;1.77;;;1.30;;
71238;SDS011;61342;51.442;7.370;2023-04-24T00:39:53;1.20;;;1.00;;
71238;SDS011;61342;51.442;7.370;2023-04-24T00:40:53;2.37;;;1.10;;
71238;SDS011;61342;51.442;7.370;2023-04-24T00:41:54;1.53;;;1.00;;
71238;SDS011;61342;51.442;7.370;2023-04-24T00:42:55;1.63;;;1.33;;
71238;SDS011;61342;51.442;7.370;2023-04-24T00:43:56;3.53;;;1.20;;
71238;SDS011;61342;51.442;7.370;2023-04-24T00:44:56;1.83;;;1.23;;
71238;SDS011;61342;51.442;7.370;2023-04-24T00:45:57;1.50;;;1.33;;
71238;SDS011;61342;51.442;7.370;2023-04-24T00:46:59;2.77;;;1.40;;
71238;SDS011;61342;51.442;7.370;2023-04-24T00:48:00;1.97;;;1.10;;
71238;SDS011;61342;51.442;7.370;2023-04-24T00:49:01;3.07;;;1.40;;
71238;SDS011;61342;51.442;7.370;2023-04-24T00:50:02;2.83;;;1.30;;
71238;SDS011;61342;51.442;7.370;2023-04-24T00:51:03;3.00;;;1.30;;
71238;SDS011;61342;51.442;7.370;2023-04-24T00:52:04;4.10;;;1.60;;
71238;SDS011;61342;51.442;7.370;2023-04-24T00:53:07;2.70;;;2.00;;
71238;SDS011;61342;51.442;7.370;2023-04-24T00:54:07;2.20;;;1.30;;
71238;SDS011;61342;51.442;7.370;2023-04-24T00:55:08;1.83;;;1.20;;
71238;SDS011;61342;51.442;7.370;2023-04-24T00:56:09;2.30;;;1.40;;
71238;SDS011;61342;51.442;7.370;2023-04-24T00:57:09;2.10;;;1.53;;
71238;SDS011;61342;51.442;7.370;2023-04-24T00:58:10;2.00;;;1.73;;
71238;SDS011;61342;51.442;7.370;2023-04-24T00:59:15;5.97;;;1.60;;
71238;SDS011;61342;51.442;7.370;2023-04-24T01:00:17;2.57;;;1.60;;
71238;SDS011;61342;51.442;7.370;2023-04-24T01:01:21;2.07;;;1.57;;
71238;SDS011;61342;51.442;7.370;2023-04-24T01:02:22;2.03;;;1.73;;
71238;SDS011;61342;51.442;7.370;2023-04-24T01:03:26;1.87;;;1.30;;
71238;SDS011;61342;51.442;7.370;2023-04-24T01:04:30;3.33;;;1.47;;
71238;SDS011;61342;51.442;7.370;2023-04-24T01:05:30;3.43;;;1.57;;
71238;SDS011;61342;51.442;7.370;2023-04-24T01:06:31;1.50;;;1.40;;
71238;SDS011;61342;51.442;7.370;2023-04-24T01:07:32;2.73;;;1.30;;
71238;SDS011;61342;51.442;7.370;2023-04-24T01:08:33;1.87;;;1.53;;
71238;SDS011;61342;51.442;7.370;2023-04-24T01:09:35;1.50;;;1.40;;
71238;SDS011;61342;51.442;7.370;2023-04-24T01:10:36;2.70;;;1.10;;
71238;SDS011;61342;51.442;7.370;2023-04-24T01:11:39;1.43;;;1.33;;
71238;SDS011;61342;51.442;7.370;2023-04-24T01:12:41;1.63;;;1.40;;
71238;SDS011;61342;51.442;7.370;2023-04-24T01:13:42;2.13;;;1.40;;
71238;SDS011;61342;51.442;7.370;2023-04-24T01:14:42;2.20;;;1.70;;
71238;SDS011;61342;51.442;7.370;2023-04-24T01:15:43;1.60;;;1.40;;
71238;SDS011;61342;51.442;7.370;2023-04-24T01:16:43;1.60;;;1.47;;
71238;SDS011;61342;51.442;7.370;2023-04-24T01:17:44;2.00;;;1.43;;
71238;SDS011;61342;51.442;7.370;2023-04-24T01:18:45;1.30;;;1.20;;
71238;SDS011;61342;51.442;7.370;2023-04-24T01:19:46;1.50;;;1.40;;
71238;SDS011;61342;51.442;7.370;2023-04-24T01:20:46;3.40;;;1.50;;
71238;SDS011;61342;51.442;7.370;2023-04-24T01:21:48;2.03;;;1.50;;
71238;SDS011;61342;51.442;7.370;2023-04-24T01:22:52;1.53;;;1.30;;
71238;SDS011;61342;51.442;7.370;2023-04-24T01:23:54;2.17;;;1.50;;
71238;SDS011;61342;51.442;7.370;2023-04-24T01:24:55;2.13;;;1.50;;
71238;SDS011;61342;51.442;7.370;2023-04-24T01:25:56;2.27;;;1.53;;
71238;SDS011;61342;51.442;7.370;2023-04-24T01:26:56;4.40;;;1.50;;
71238;SDS011;61342;51.442;7.370;2023-04-24T01:27:57;2.07;;;1.33;;
71238;SDS011;61342;51.442;7.370;2023-04-24T01:28:58;1.70;;;1.40;;
71238;SDS011;61342;51.442;7.370;2023-04-24T01:29:59;1.30;;;1.20;;
71238;SDS011;61342;51.442;7.370;2023-04-24T01:30:59;1.57;;;1.33;;
71238;SDS011;61342;51.442;7.370;2023-04-24T01:31:59;1.80;;;1.30;;
71238;SDS011;61342;51.442;7.370;2023-04-24T01:33:00;1.97;;;1.47;;
71238;SDS011;61342;51.442;7.370;2023-04-24T01:34:01;1.73;;;1.50;;
71238;SDS011;61342;51.442;7.370;2023-04-24T01:35:02;2.93;;;1.50;;
71238;SDS011;61342;51.442;7.370;2023-04-24T01:36:03;4.10;;;1.47;;
71238;SDS011;61342;51.442;7.370;2023-04-24T01:37:04;1.63;;;1.40;;
71238;SDS011;61342;51.442;7.370;2023-04-24T01:38:05;2.37;;;1.43;;
71238;SDS011;61342;51.442;7.370;2023-04-24T01:39:05;3.27;;;1.60;;
71238;SDS011;61342;51.442;7.370;2023-04-24T01:40:06;3.63;;;1.37;;
71238;SDS011;61342;51.442;7.370;2023-04-24T01:41:07;2.37;;;1.50;;
71238;SDS011;61342;51.442;7.370;2023-04-24T01:42:07;1.60;;;1.50;;
71238;SDS011;61342;51.442;7.370;2023-04-24T01:43:08;1.63;;;1.40;;
71238;SDS011;61342;51.442;7.370;2023-04-24T01:44:08;1.93;;;1.60;;
71238;SDS011;61342;51.442;7.370;2023-04-24T01:45:10;1.77;;;1.37;;
71238;SDS011;61342;51.442;7.370;2023-04-24T01:46:12;2.37;;;1.57;;
71238;SDS011;61342;51.442;7.370;2023-04-24T01:47:13;1.50;;;1.40;;
71238;SDS011;61342;51.442;7.370;2023-04-24T01:48:13;1.77;;;1.50;;
71238;SDS011;61342;51.442;7.370;2023-04-24T01:49:14;2.00;;;1.50;;
71238;SDS011;61342;51.442;7.370;2023-04-24T01:50:15;5.50;;;1.70;;
71238;SDS011;61342;51.442;7.370;2023-04-24T01:51:16;4.70;;;1.73;;
71238;SDS011;61342;51.442;7.370;2023-04-24T01:52:16;2.00;;;1.60;;
71238;SDS011;61342;51.442;7.370;2023-04-24T01:53:18;1.43;;;1.33;;
71238;SDS011;61342;51.442;7.370;2023-04-24T01:54:18;2.00;;;1.40;;
71238;SDS011;61342;51.442;7.370;2023-04-24T01:55:19;1.90;;;1.67;;
71238;SDS011;61342;51.442;7.370;2023-04-24T01:56:20;1.97;;;1.67;;
71238;SDS011;61342;51.442;7.370;2023-04-24T01:57:22;1.90;;;1.60;;
71238;SDS011;61342;51.442;7.370;2023-04-24T01:58:22;1.67;;;1.50;;
71238;SDS011;61342;51.442;7.370;2023-04-24T01:59:23;1.70;;;1.40;;
71238;SDS011;61342;51.442;7.370;2023-04-24T02:00:27;3.37;;;1.60;;
71238;SDS011;61342;51.442;7.370;2023-04-24T02:01:27;1.70;;;1.60;;
71238;SDS011;61342;51.442;7.370;2023-04-24T02:02:32;3.10;;;1.40;;
71238;SDS011;61342;51.442;7.370;2023-04-24T02:03:33;2.33;;;1.70;;
71238;SDS011;61342;51.442;7.370;2023-04-24T02:04:34;2.07;;;1.53;;
71238;SDS011;61342;51.442;7.370;2023-04-24T02:05:34;2.17;;;1.60;;
71238;SDS011;61342;51.442;7.370;2023-04-24T02:06:35;3.23;;;1.90;;
71238;SDS011;61342;51.442;7.370;2023-04-24T02:07:35;3.53;;;1.70;;
71238;SDS011;61342;51.442;7.370;2023-04-24T02:08:36;3.00;;;1.77;;
71238;SDS011;61342;51.442;7.370;2023-04-24T02:09:36;2.53;;;1.63;;
71238;SDS011;61342;51.442;7.370;2023-04-24T02:10:36;1.70;;;1.60;;
71238;SDS011;61342;51.442;7.370;2023-04-24T02:11:37;4.67;;;1.60;;
71238;SDS011;61342;51.442;7.370;2023-04-24T02:12:37;2.53;;;1.90;;
71238;SDS011;61342;51.442;7.370;2023-04-24T02:13:37;3.37;;;1.70;;
71238;SDS011;61342;51.442;7.370;2023-04-24T02:14:38;3.53;;;1.90;;
71238;SDS011;61342;51.442;7.370;2023-04-24T02:15:38;2.20;;;1.90;;
71238;SDS011;61342;51.442;7.370;2023-04-24T02:16:38;2.17;;;1.77;;
71238;SDS011;61342;51.442;7.370;2023-04-24T02:17:39;2.67;;;1.90;;
71238;SDS011;61342;51.442;7.370;2023-04-24T02:18:40;3.10;;;2.30;;
71238;SDS011;61342;51.442;7.370;2023-04-24T02:19:40;3.10;;;2.40;;
71238;SDS011;61342;51.442;7.370;2023-04-24T02:20:40;3.07;;;2.50;;
71238;SDS011;61342;51.442;7.370;2023-04-24T02:21:41;4.37;;;2.70;;
71238;SDS011;61342;51.442;7.370;2023-04-24T02:22:41;3.80;;;2.60;;
71238;SDS011;61342;51.442;7.370;2023-04-24T02:23:41;4.47;;;2.93;;
71238;SDS011;61342;51.442;7.370;2023-04-24T02:24:42;5.07;;;2.73;;
71238;SDS011;61342;51.442;7.370;2023-04-24T02:25:42;2.40;;;2.20;;
71238;SDS011;61342;51.442;7.370;2023-04-24T02:26:42;4.43;;;2.90;;
71238;SDS011;61342;51.442;7.370;2023-04-24T02:27:43;4.63;;;2.90;;
71238;SDS011;61342;51.442;7.370;2023-04-24T02:28:43;2.83;;;2.53;;
71238;SDS011;61342;51.442;7.370;2023-04-24T02:29:43;3.60;;;2.90;;
71238;SDS011;61342;51.442;7.370;2023-04-24T02:30:44;5.70;;;3.20;;
71238;SDS011;61342;51.442;7.370;2023-04-24T02:31:45;5.23;;;3.10;;
71238;SDS011;61342;51.442;7.370;2023-04-24T02:32:45;4.87;;;2.97;;
71238;SDS011;61342;51.442;7.370;2023-04-24T02:33:46;3.77;;;2.87;;
71238;SDS011;61342;51.442;7.370;2023-04-24T02:34:46;3.63;;;3.00;;
71238;SDS011;61342;51.442;7.370;2023-04-24T02:35:47;4.07;;;2.87;;
71238;SDS011;61342;51.442;7.370;2023-04-24T02:36:47;4.03;;;3.27;;
71238;SDS011;61342;51.442;7.370;2023-04-24T02:37:47;4.20;;;3.10;;
71238;SDS011;61342;51.442;7.370;2023-04-24T02:38:48;3.17;;;2.70;;
71238;SDS011;61342;51.442;7.370;2023-04-24T02:39:48;3.87;;;3.17;;
71238;SDS011;61342;51.442;7.370;2023-04-24T02:40:48;5.00;;;3.20;;
71238;SDS011;61342;51.442;7.370;2023-04-24T02:41:49;3.10;;;2.90;;
71238;SDS011;61342;51.442;7.370;2023-04-24T02:42:49;3.00;;;2.70;;
71238;SDS011;61342;51.442;7.370;2023-04-24T02:43:49;4.97;;;2.77;;
71238;SDS011;61342;51.442;7.370;2023-04-24T02:44:50;5.87;;;3.37;;
71238;SDS011;61342;51.442;7.370;2023-04-24T02:45:51;5.60;;;3.27;;
71238;SDS011;61342;51.442;7.370;2023-04-24T02:46:51;5.03;;;3.70;;
71238;SDS011;61342;51.442;7.370;2023-04-24T02:47:51;3.53;;;3.17;;
71238;SDS011;61342;51.442;7.370;2023-04-24T02:48:52;4.77;;;3.40;;
71238;SDS011;61342;51.442;7.370;2023-04-24T02:49:52;6.73;;;3.40;;
71238;SDS011;61342;51.442;7.370;2023-04-24T02:50:52;4.77;;;3.33;;
71238;SDS011;61342;51.442;7.370;2023-04-24T02:51:53;3.50;;;3.03;;
71238;SDS011;61342;51.442;7.370;2023-04-24T02:52:53;5.40;;;3.83;;
71238;SDS011;61342;51.442;7.370;2023-04-24T02:53:53;6.00;;;3.80;;
71238;SDS011;61342;51.442;7.370;2023-04-24T02:54:54;4.33;;;3.73;;
71238;SDS011;61342;51.442;7.370;2023-04-24T02:55:54;5.40;;;3.80;;
71238;SDS011;61342;51.442;7.370;2023-04-24T02:56:55;4.07;;;3.60;;
71238;SDS011;61342;51.442;7.370;2023-04-24T02:57:56;7.83;;;4.37;;
71238;SDS011;61342;51.442;7.370;2023-04-24T02:58:57;6.40;;;4.60;;
71238;SDS011;61342;51.442;7.370;2023-04-24T02:59:57;4.27;;;3.90;;
71238;SDS011;61342;51.442;7.370;2023-04-24T03:00:57;5.73;;;4.33;;
71238;SDS011;61342;51.442;7.370;2023-04-24T03:01:58;5.80;;;4.87;;
71238;SDS011;61342;51.442;7.370;2023-04-24T03:02:58;6.53;;;5.13;;
71238;SDS011;61342;51.442;7.370;2023-04-24T03:03:58;6.63;;;4.60;;
71238;SDS011;61342;51.442;7.370;2023-04-24T03:04:59;8.13;;;5.40;;
71238;SDS011;61342;51.442;7.370;2023-04-24T03:05:59;6.97;;;5.43;;
71238;SDS011;61342;51.442;7.370;2023-04-24T03:07:00;8.43;;;5.87;;
71238;SDS011;61342;51.442;7.370;2023-04-24T03:08:01;8.90;;;6.27;;
71238;SDS011;61342;51.442;7.370;2023-04-24T03:09:01;7.40;;;5.43;;
71238;SDS011;61342;51.442;7.370;2023-04-24T03:10:03;7.03;;;5.43;;
71238;SDS011;61342;51.442;7.370;2023-04-24T03:11:05;6.77;;;5.90;;
71238;SDS011;61342;51.442;7.370;2023-04-24T03:12:06;6.77;;;6.00;;
71238;SDS011;61342;51.442;7.370;2023-04-24T03:13:06;7.40;;;6.47;;
71238;SDS011;61342;51.442;7.370;2023-04-24T03:14:06;6.33;;;5.70;;
71238;SDS011;61342;51.442;7.370;2023-04-24T03:15:07;7.57;;;5.80;;
71238;SDS011;61342;51.442;7.370;2023-04-24T03:16:08;7.77;;;6.53;;
71238;SDS011;61342;51.442;7.370;2023-04-24T03:17:08;9.13;;;6.07;;
71238;SDS011;61342;51.442;7.370;2023-04-24T03:18:08;7.37;;;6.23;;
71238;SDS011;61342;51.442;7.370;2023-04-24T03:19:09;11.13;;;6.63;;
71238;SDS011;61342;51.442;7.370;2023-04-24T03:20:09;8.27;;;6.60;;
71238;SDS011;61342;51.442;7.370;2023-04-24T03:21:10;9.10;;;6.37;;
71238;SDS011;61342;51.442;7.370;2023-04-24T03:22:11;6.87;;;6.13;;
71238;SDS011;61342;51.442;7.370;2023-04-24T03:23:12;8.17;;;7.03;;
71238;SDS011;61342;51.442;7.370;2023-04-24T03:24:12;10.43;;;7.33;;
71238;SDS011;61342;51.442;7.370;2023-04-24T03:25:13;9.70;;;7.07;;
71238;SDS011;61342;51.442;7.370;2023-04-24T03:26:13;11.17;;;7.80;;
71238;SDS011;61342;51.442;7.370;2023-04-24T03:27:14;11.00;;;7.47;;
71238;SDS011;61342;51.442;7.370;2023-04-24T03:28:14;9.73;;;7.70;;
71238;SDS011;61342;51.442;7.370;2023-04-24T03:29:14;8.80;;;7.47;;
71238;SDS011;61342;51.442;7.370;2023-04-24T03:30:14;10.23;;;7.47;;
71238;SDS011;61342;51.442;7.370;2023-04-24T03:31:15;11.50;;;7.60;;
71238;SDS011;61342;51.442;7.370;2023-04-24T03:32:16;10.13;;;7.53;;
71238;SDS011;61342;51.442;7.370;2023-04-24T03:33:16;12.70;;;8.17;;
71238;SDS011;61342;51.442;7.370;2023-04-24T03:34:17;9.90;;;7.93;;
71238;SDS011;61342;51.442;7.370;2023-04-24T03:35:17;9.70;;;7.03;;
71238;SDS011;61342;51.442;7.370;2023-04-24T03:36:18;11.40;;;7.93;;
71238;SDS011;61342;51.442;7.370;2023-04-24T03:37:19;12.23;;;8.10;;
71238;SDS011;61342;51.442;7.370;2023-04-24T03:38:19;8.87;;;7.27;;
71238;SDS011;61342;51.442;7.370;2023-04-24T03:39:19;10.33;;;6.93;;
71238;SDS011;61342;51.442;7.370;2023-04-24T03:40:20;8.77;;;7.43;;
71238;SDS011;61342;51.442;7.370;2023-04-24T03:41:20;12.37;;;8.03;;
71238;SDS011;61342;51.442;7.370;2023-04-24T03:42:21;12.03;;;7.97;;
71238;SDS011;61342;51.442;7.370;2023-04-24T03:43:22;9.43;;;7.70;;
71238;SDS011;61342;51.442;7.370;2023-04-24T03:44:22;9.10;;;7.70;;
71238;SDS011;61342;51.442;7.370;2023-04-24T03:45:22;9.83;;;8.00;;
71238;SDS011;61342;51.442;7.370;2023-04-24T03:46:24;10.10;;;7.40;;
71238;SDS011;61342;51.442;7.370;2023-04-24T03:47:24;10.23;;;8.43;;
71238;SDS011;61342;51.442;7.370;2023-04-24T03:48:24;11.73;;;8.30;;
71238;SDS011;61342;51.442;7.370;2023-04-24T03:49:25;8.57;;;7.70;;
71238;SDS011;61342;51.442;7.370;2023-04-24T03:50:25;8.43;;;7.37;;
71238;SDS011;61342;51.442;7.370;2023-04-24T03:51:26;9.67;;;8.17;;
71238;SDS011;61342;51.442;7.370;2023-04-24T03:52:27;12.03;;;7.93;;
71238;SDS011;61342;51.442;7.370;2023-04-24T03:53:28;11.97;;;8.33;;
71238;SDS011;61342;51.442;7.370;2023-04-24T03:54:28;8.77;;;7.77;;
71238;SDS011;61342;51.442;7.370;2023-04-24T03:55:29;9.50;;;8.10;;
71238;SDS011;61342;51.442;7.370;2023-04-24T03:56:29;14.13;;;7.97;;
71238;SDS011;61342;51.442;7.370;2023-04-24T03:57:30;10.07;;;7.93;;
71238;SDS011;61342;51.442;7.370;2023-04-24T03:58:30;10.97;;;8.27;;
71238;SDS011;61342;51.442;7.370;2023-04-24T03:59:31;10.40;;;8.17;;
71238;SDS011;61342;51.442;7.370;2023-04-24T04:00:31;10.70;;;7.97;;
71238;SDS011;61342;51.442;7.370;2023-04-24T04:01:32;11.07;;;8.43;;
71238;SDS011;61342;51.442;7.370;2023-04-24T04:02:32;43.27;;;29.80;;
71238;SDS011;61342;51.442;7.370;2023-04-24T04:03:32;44.47;;;28.90;;
71238;SDS011;61342;51.442;7.370;2023-04-24T04:04:33;15.63;;;11.30;;
71238;SDS011;61342;51.442;7.370;2023-04-24T04:05:33;10.23;;;7.90;;
71238;SDS011;61342;51.442;7.370;2023-04-24T04:06:34;12.20;;;7.77;;
71238;SDS011;61342;51.442;7.370;2023-04-24T04:07:36;11.83;;;8.07;;
71238;SDS011;61342;51.442;7.370;2023-04-24T04:08:36;11.37;;;8.53;;
71238;SDS011;61342;51.442;7.370;2023-04-24T04:09:37;13.83;;;8.80;;
71238;SDS011;61342;51.442;7.370;2023-04-24T04:10:37;12.67;;;8.87;;
71238;SDS011;61342;51.442;7.370;2023-04-24T04:11:37;10.33;;;8.87;;
71238;SDS011;61342;51.442;7.370;2023-04-24T04:12:38;9.17;;;7.80;;
71238;SDS011;61342;51.442;7.370;2023-04-24T04:13:38;11.80;;;8.63;;
71238;SDS011;61342;51.442;7.370;2023-04-24T04:14:39;13.47;;;8.83;;
71238;SDS011;61342;51.442;7.370;2023-04-24T04:15:39;10.57;;;9.27;;
71238;SDS011;61342;51.442;7.370;2023-04-24T04:16:40;9.43;;;8.43;;
71238;SDS011;61342;51.442;7.370;2023-04-24T04:17:41;10.77;;;8.83;;
71238;SDS011;61342;51.442;7.370;2023-04-24T04:18:41;10.80;;;8.90;;
71238;SDS011;61342;51.442;7.370;2023-04-24T04:19:42;9.50;;;8.13;;
71238;SDS011;61342;51.442;7.370;2023-04-24T04:20:42;32.03;;;20.33;;
71238;SDS011;61342;51.442;7.370;2023-04-24T04:21:42;26.03;;;17.93;;
71238;SDS011;61342;51.442;7.370;2023-04-24T04:22:43;13.07;;;10.37;;
71238;SDS011;61342;51.442;7.370;2023-04-24T04:23:43;10.40;;;8.87;;
71238;SDS011;61342;51.442;7.370;2023-04-24T04:24:43;10.87;;;9.03;;
71238;SDS011;61342;51.442;7.370;2023-04-24T04:25:44;8.63;;;7.70;;
71238;SDS011;61342;51.442;7.370;2023-04-24T04:26:44;11.20;;;8.97;;
71238;SDS011;61342;51.442;7.370;2023-04-24T04:27:47;11.03;;;8.57;;
71238;SDS011;61342;51.442;7.370;2023-04-24T04:28:51;10.67;;;8.37;;
71238;SDS011;61342;51.442;7.370;2023-04-24T04:29:52;10.37;;;8.50;;
71238;SDS011;61342;51.442;7.370;2023-04-24T04:30:52;13.57;;;9.40;;
71238;SDS011;61342;51.442;7.370;2023-04-24T04:31:58;11.77;;;8.87;;
71238;SDS011;61342;51.442;7.370;2023-04-24T04:32:58;12.27;;;8.40;;
71238;SDS011;61342;51.442;7.370;2023-04-24T04:33:59;12.43;;;8.37;;
71238;SDS011;61342;51.442;7.370;2023-04-24T04:35:01;10.00;;;8.40;;
71238;SDS011;61342;51.442;7.370;2023-04-24T04:36:05;11.63;;;8.33;;
71238;SDS011;61342;51.442;7.370;2023-04-24T04:37:05;14.50;;;8.93;;
71238;SDS011;61342;51.442;7.370;2023-04-24T04:38:06;11.30;;;8.47;;
71238;SDS011;61342;51.442;7.370;2023-04-24T04:39:08;10.67;;;8.37;;
71238;SDS011;61342;51.442;7.370;2023-04-24T04:40:08;11.27;;;8.70;;
71238;SDS011;61342;51.442;7.370;2023-04-24T04:41:12;10.97;;;8.80;;
71238;SDS011;61342;51.442;7.370;2023-04-24T04:42:12;13.97;;;9.73;;
71238;SDS011;61342;51.442;7.370;2023-04-24T04:43:13;26.63;;;18.77;;
71238;SDS011;61342;51.442;7.370;2023-04-24T04:44:14;16.33;;;12.13;;
71238;SDS011;61342;51.442;7.370;2023-04-24T04:45:15;15.50;;;9.83;;
71238;SDS011;61342;51.442;7.370;2023-04-24T04:46:16;14.37;;;9.43;;
71238;SDS011;61342;51.442;7.370;2023-04-24T04:47:17;11.97;;;9.77;;
71238;SDS011;61342;51.442;7.370;2023-04-24T04:48:18;12.00;;;9.00;;
71238;SDS011;61342;51.442;7.370;2023-04-24T04:49:18;11.90;;;8.73;;
71238;SDS011;61342;51.442;7.370;2023-04-24T04:50:21;9.97;;;8.97;;
71238;SDS011;61342;51.442;7.370;2023-04-24T04:51:22;12.70;;;8.77;;
71238;SDS011;61342;51.442;7.370;2023-04-24T04:52:23;10.50;;;8.60;;
71238;SDS011;61342;51.442;7.370;2023-04-24T04:53:25;13.20;;;9.53;;
71238;SDS011;61342;51.442;7.370;2023-04-24T04:54:25;14.50;;;9.67;;
71238;SDS011;61342;51.442;7.370;2023-04-24T04:55:26;15.03;;;9.63;;
71238;SDS011;61342;51.442;7.370;2023-04-24T04:56:26;13.13;;;9.33;;
71238;SDS011;61342;51.442;7.370;2023-04-24T04:57:27;12.17;;;8.77;;
71238;SDS011;61342;51.442;7.370;2023-04-24T04:58:27;12.90;;;9.53;;
71238;SDS011;61342;51.442;7.370;2023-04-24T04:59:28;12.17;;;9.63;;
71238;SDS011;61342;51.442;7.370;2023-04-24T05:00:28;12.27;;;9.50;;
71238;SDS011;61342;51.442;7.370;2023-04-24T05:01:33;11.90;;;9.23;;
71238;SDS011;61342;51.442;7.370;2023-04-24T05:02:34;12.47;;;9.30;;
71238;SDS011;61342;51.442;7.370;2023-04-24T05:03:34;14.07;;;9.90;;
71238;SDS011;61342;51.442;7.370;2023-04-24T05:04:35;10.30;;;9.20;;
71238;SDS011;61342;51.442;7.370;2023-04-24T05:05:36;11.53;;;9.60;;
71238;SDS011;61342;51.442;7.370;2023-04-24T05:06:40;14.50;;;9.77;;
71238;SDS011;61342;51.442;7.370;2023-04-24T05:07:40;11.57;;;9.83;;
71238;SDS011;61342;51.442;7.370;2023-04-24T05:08:41;14.63;;;9.90;;
71238;SDS011;61342;51.442;7.370;2023-04-24T05:09:41;15.57;;;10.13;;
71238;SDS011;61342;51.442;7.370;2023-04-24T05:10:41;12.80;;;10.00;;
71238;SDS011;61342;51.442;7.370;2023-04-24T05:11:42;12.77;;;9.67;;
71238;SDS011;61342;51.442;7.370;2023-04-24T05:12:42;14.83;;;9.97;;
71238;SDS011;61342;51.442;7.370;2023-04-24T05:13:42;12.03;;;9.50;;
71238;SDS011;61342;51.442;7.370;2023-04-24T05:14:43;16.03;;;9.10;;
71238;SDS011;61342;51.442;7.370;2023-04-24T05:15:43;11.13;;;9.33;;
71238;SDS011;61342;51.442;7.370;2023-04-24T05:16:44;12.10;;;9.90;;
71238;SDS011;61342;51.442;7.370;2023-04-24T05:17:44;12.57;;;9.00;;
71238;SDS011;61342;51.442;7.370;2023-04-24T05:18:45;12.13;;;9.27;;
71238;SDS011;61342;51.442;7.370;2023-04-24T05:19:45;10.90;;;9.00;;
71238;SDS011;61342;51.442;7.370;2023-04-24T05:20:46;11.97;;;9.33;;
71238;SDS011;61342;51.442;7.370;2023-04-24T05:21:46;13.10;;;9.40;;
71238;SDS011;61342;51.442;7.370;2023-04-24T05:22:47;9.90;;;8.83;;
71238;SDS011;61342;51.442;7.370;2023-04-24T05:23:47;12.90;;;8.57;;
71238;SDS011;61342;51.442;7.370;2023-04-24T05:24:47;12.60;;;8.77;;
71238;SDS011;61342;51.442;7.370;2023-04-24T05:25:48;10.23;;;8.90;;
71238;SDS011;61342;51.442;7.370;2023-04-24T05:26:48;10.17;;;7.77;;
71238;SDS011;61342;51.442;7.370;2023-04-24T05:27:49;9.23;;;8.07;;
71238;SDS011;61342;51.442;7.370;2023-04-24T05:28:49;11.93;;;8.20;;
71238;SDS011;61342;51.442;7.370;2023-04-24T05:29:49;10.50;;;7.87;;
71238;SDS011;61342;51.442;7.370;2023-04-24T05:30:50;9.50;;;7.87;;
71238;SDS011;61342;51.442;7.370;2023-04-24T05:31:50;9.10;;;7.77;;
71238;SDS011;61342;51.442;7.370;2023-04-24T05:32:51;7.83;;;7.03;;
71238;SDS011;61342;51.442;7.370;2023-04-24T05:33:51;9.20;;;8.20;;
71238;SDS011;61342;51.442;7.370;2023-04-24T05:34:51;11.80;;;8.07;;
71238;SDS011;61342;51.442;7.370;2023-04-24T05:35:52;9.57;;;7.90;;
71238;SDS011;61342;51.442;7.370;2023-04-24T05:36:52;9.03;;;7.93;;
71238;SDS011;61342;51.442;7.370;2023-04-24T05:37:53;10.47;;;7.37;;
71238;SDS011;61342;51.442;7.370;2023-04-24T05:38:53;9.67;;;7.60;;
71238;SDS011;61342;51.442;7.370;2023-04-24T05:39:54;11.67;;;7.13;;
71238;SDS011;61342;51.442;7.370;2023-04-24T05:40:54;8.10;;;7.30;;
71238;SDS011;61342;51.442;7.370;2023-04-24T05:41:54;10.97;;;8.13;;
71238;SDS011;61342;51.442;7.370;2023-04-24T05:42:57;11.80;;;7.93;;
71238;SDS011;61342;51.442;7.370;2023-04-24T05:43:58;10.07;;;7.67;;
71238;SDS011;61342;51.442;7.370;2023-04-24T05:44:58;12.00;;;7.57;;
71238;SDS011;61342;51.442;7.370;2023-04-24T05:45:58;9.57;;;7.23;;
71238;SDS011;61342;51.442;7.370;2023-04-24T05:46:59;8.57;;;7.67;;
71238;SDS011;61342;51.442;7.370;2023-04-24T05:48:00;10.33;;;7.73;;
71238;SDS011;61342;51.442;7.370;2023-04-24T05:49:01;8.43;;;7.47;;
71238;SDS011;61342;51.442;7.370;2023-04-24T05:50:02;10.37;;;7.97;;
71238;SDS011;61342;51.442;7.370;2023-04-24T05:51:03;9.83;;;7.27;;
71238;SDS011;61342;51.442;7.370;2023-04-24T05:52:03;10.10;;;6.87;;
71238;SDS011;61342;51.442;7.370;2023-04-24T05:53:05;8.77;;;7.17;;
71238;SDS011;61342;51.442;7.370;2023-04-24T05:54:07;9.63;;;7.43;;
71238;SDS011;61342;51.442;7.370;2023-04-24T05:55:07;8.27;;;7.33;;
71238;SDS011;61342;51.442;7.370;2023-04-24T05:56:08;10.17;;;7.60;;
71238;SDS011;61342;51.442;7.370;2023-04-24T05:57:08;7.93;;;7.03;;
71238;SDS011;61342;51.442;7.370;2023-04-24T05:58:09;9.03;;;7.30;;
71238;SDS011;61342;51.442;7.370;2023-04-24T05:59:09;10.47;;;7.47;;
71238;SDS011;61342;51.442;7.370;2023-04-24T06:00:10;10.40;;;7.50;;
71238;SDS011;61342;51.442;7.370;2023-04-24T06:01:12;8.67;;;7.50;;
71238;SDS011;61342;51.442;7.370;2023-04-24T06:02:14;8.50;;;7.60;;
71238;SDS011;61342;51.442;7.370;2023-04-24T06:03:14;10.73;;;7.80;;
71238;SDS011;61342;51.442;7.370;2023-04-24T06:04:14;9.33;;;7.80;;